<?xml version='1.0' encoding='UTF-8'?>
<gpx xmlns="http://www.topografix.com/GPX/1/1" creator="www.balnam.be" version="1.1" xmlns:xsi="http://www.w3.org/2001/XMLSchema-instance" xsi:schemaLocation="http://www.topografix.com/GPX/1/1 http://www.topografix.com/GPX/1/1/gpx.xsd">
<trk>
<name>nvvov25</name>
<cmt>r</cmt>
<desc>Olloy-sur-Viroin Chemin n°25 Rue des Hérutis / ?</desc>
<link href="https://chemins.be/olloy/chemin/25"/><trkseg>
<trkpt lat="50.065528" lon="4.608671"><time>2026-05-02T18:19:11Z</time></trkpt>
<trkpt lat="50.065479" lon="4.610416"><time>2026-05-02T18:29:11Z</time></trkpt>
<trkpt lat="50.065296" lon="4.612259"><time>2026-05-02T18:39:11Z</time></trkpt>
</trkseg></trk>
<trk>
<name>nvvov25</name>
<cmt>v</cmt>
<desc>Olloy-sur-Viroin Chemin n°25 Rue des Hérutis / ?</desc>
<link href="https://chemins.be/olloy/chemin/25"/><trkseg>
<trkpt lat="50.065296" lon="4.612259"><time>2026-05-02T18:39:11Z</time></trkpt>
<trkpt lat="50.065123" lon="4.613068"><time>2026-05-02T18:49:11Z</time></trkpt>
<trkpt lat="50.064832" lon="4.614687"><time>2026-05-02T18:59:11Z</time></trkpt>
<trkpt lat="50.064774" lon="4.616349"><time>2026-05-02T19:09:11Z</time></trkpt>
<trkpt lat="50.064441" lon="4.616906"><time>2026-05-02T19:19:11Z</time></trkpt>
<trkpt lat="50.063386" lon="4.617948"><time>2026-05-02T19:29:11Z</time></trkpt>
<trkpt lat="50.061381" lon="4.618035"><time>2026-05-02T19:39:11Z</time></trkpt>
<trkpt lat="50.060510" lon="4.617877"><time>2026-05-02T19:49:11Z</time></trkpt>
<trkpt lat="50.059844" lon="4.617873"><time>2026-05-02T19:59:11Z</time></trkpt>
<trkpt lat="50.058701" lon="4.618580"><time>2026-05-02T20:09:11Z</time></trkpt>
<trkpt lat="50.058386" lon="4.618815"><time>2026-05-02T20:19:11Z</time></trkpt>
<trkpt lat="50.058062" lon="4.618967"><time>2026-05-02T20:29:11Z</time></trkpt>
<trkpt lat="50.057763" lon="4.619664"><time>2026-05-02T20:39:11Z</time></trkpt>
<trkpt lat="50.056612" lon="4.620035"><time>2026-05-02T20:49:11Z</time></trkpt>
<trkpt lat="50.055822" lon="4.620699"><time>2026-05-02T20:59:11Z</time></trkpt>
<trkpt lat="50.054571" lon="4.620742"><time>2026-05-02T21:09:11Z</time></trkpt>
<trkpt lat="50.053563" lon="4.620124"><time>2026-05-02T21:19:11Z</time></trkpt>
<trkpt lat="50.052471" lon="4.619506"><time>2026-05-02T21:29:11Z</time></trkpt>
<trkpt lat="50.051998" lon="4.618948"><time>2026-05-02T21:39:11Z</time></trkpt>
<trkpt lat="50.052075" lon="4.618489"><time>2026-05-02T21:49:11Z</time></trkpt>
<trkpt lat="50.050960" lon="4.618511"><time>2026-05-02T21:59:11Z</time></trkpt>
<trkpt lat="50.049781" lon="4.618966"><time>2026-05-02T22:09:11Z</time></trkpt>
<trkpt lat="50.048541" lon="4.618876"><time>2026-05-02T22:19:11Z</time></trkpt>
<trkpt lat="50.045618" lon="4.619293"><time>2026-05-02T22:29:11Z</time></trkpt>
<trkpt lat="50.041684" lon="4.617499"><time>2026-05-02T22:39:11Z</time></trkpt>
<trkpt lat="50.039931" lon="4.617113"><time>2026-05-02T22:49:11Z</time></trkpt>
<trkpt lat="50.037232" lon="4.618272"><time>2026-05-02T22:59:11Z</time></trkpt>
<trkpt lat="50.035985" lon="4.621169"><time>2026-05-02T23:09:11Z</time></trkpt>
<trkpt lat="50.035237" lon="4.621919"><time>2026-05-02T23:19:11Z</time></trkpt>
</trkseg>
</trk>
</gpx>